Time;durP1;ratioP1;P1;durP2;ratioP2;P2;SDS_P1;SDS_P2;PMS_P1;PMS_P2;Temp;Humidity;BMP_temperature;BMP_pressure;BME280_temperature;BME280_humidity;BME280_pressure;Samples;Min_cycle;Max_cycle;Signal;HPM_P1;HPM_P2
2023/09/10 00:07:54;;;;;;;20.10;18.00;;;21.00;1.00;;;;;;20591934;28;20487;-42
2023/09/10 00:17:55;;;;;;;22.65;19.63;;;20.90;4.40;;;;;;20591095;28;20388;-42
2023/09/10 00:27:57;;;;;;;21.55;19.27;;;20.80;7.20;;;;;;20590667;28;20402;-41
2023/09/10 00:37:58;;;;;;;21.25;19.13;;;20.80;7.80;;;;;;20588817;28;20035;-42
2023/09/10 00:47:59;;;;;;;22.88;20.58;;;20.70;5.20;;;;;;20589165;28;20051;-39
2023/09/10 00:58:01;;;;;;;24.20;21.70;;;20.60;13.40;;;;;;20583558;28;20056;-39
2023/09/10 01:08:03;;;;;;;23.42;20.95;;;20.60;9.20;;;;;;20588021;28;20141;-39
2023/09/10 01:18:23;;;;;;;24.13;21.65;;;20.60;13.30;;;;;;20587382;28;20050;-39
2023/09/10 01:28:23;;;;;;;23.90;21.50;;;20.40;17.70;;;;;;20584499;28;20189;-39
2023/09/10 01:38:37;;;;;;;26.55;23.73;;;20.30;21.30;;;;;;20586069;28;20051;-39
2023/09/10 01:48:38;;;;;;;24.17;21.58;;;20.40;15.80;;;;;;20583899;28;20073;-39
2023/09/10 01:58:39;;;;;;;21.52;19.42;;;20.30;17.10;;;;;;20582387;28;20046;-39
2023/09/10 02:08:39;;;;;;;22.70;20.33;;;20.30;16.10;;;;;;20583486;28;20034;-39
2023/09/10 02:18:40;;;;;;;21.48;18.98;;;20.20;23.80;;;;;;20579089;28;20517;-39
2023/09/10 02:28:40;;;;;;;22.27;20.02;;;20.10;19.40;;;;;;20582877;28;20054;-39
2023/09/10 02:38:41;;;;;;;23.70;21.25;;;20.20;10.40;;;;;;20824532;23;20187;-41
2023/09/10 02:48:41;;;;;;;22.73;20.42;;;20.20;6.20;;;;;;20523069;28;20113;-42
2023/09/10 02:58:42;;;;;;;23.05;20.75;;;20.20;4.70;;;;;;20522530;28;20406;-41
2023/09/10 03:08:44;;;;;;;22.00;19.35;;;20.20;7.40;;;;;;20521908;28;20047;-42
2023/09/10 03:18:45;;;;;;;21.83;19.50;;;20.20;4.70;;;;;;20519232;28;20045;-42
2023/09/10 03:28:45;;;;;;;20.65;18.58;;;20.20;2.70;;;;;;20518533;28;20050;-42
2023/09/10 03:38:46;;;;;;;22.17;19.83;;;20.10;6.70;;;;;;20520689;28;20043;-42
2023/09/10 03:48:46;;;;;;;21.77;19.58;;;20.10;8.40;;;;;;20518045;28;20524;-42
2023/09/10 03:58:47;;;;;;;21.40;19.23;;;20.10;7.70;;;;;;20516552;28;20043;-42
2023/09/10 04:08:47;;;;;;;20.15;17.70;;;20.10;9.20;;;;;;20519061;28;20293;-42
2023/09/10 04:18:48;;;;;;;22.83;20.45;;;20.00;12.30;;;;;;20520693;28;20194;-42
2023/09/10 04:28:48;;;;;;;29.58;24.50;;;19.90;15.30;;;;;;20516558;28;20049;-41
2023/09/10 04:38:49;;;;;;;30.40;23.77;;;19.90;34.40;;;;;;20516222;28;20558;-41
2023/09/10 04:48:50;;;;;;;23.52;21.15;;;19.80;65.60;;;;;;20512077;28;20040;-41
2023/09/10 04:58:50;;;;;;;26.40;23.80;;;19.50;99.90;;;;;;20512640;28;20485;-41
2023/09/10 05:08:51;;;;;;;29.08;26.15;;;19.50;99.90;;;;;;20512316;28;20051;-41
2023/09/10 05:18:52;;;;;;;29.60;26.70;;;19.50;99.90;;;;;;20510824;28;20486;-41
2023/09/10 05:28:53;;;;;;;30.95;27.65;;;19.40;99.90;;;;;;20510690;28;20458;-41
2023/09/10 05:38:54;;;;;;;28.00;25.05;;;19.30;99.90;;;;;;20511751;28;20505;-41
2023/09/10 05:48:54;;;;;;;30.77;27.60;;;19.30;99.90;;;;;;20511736;28;20042;-41
2023/09/10 05:58:55;;;;;;;26.20;23.40;;;19.50;99.90;;;;;;20508104;28;20443;-41
2023/09/10 06:08:56;;;;;;;23.45;21.00;;;19.70;99.90;;;;;;20514889;28;20043;-41
2023/09/10 06:18:56;;;;;;;20.92;18.73;;;19.80;99.90;;;;;;20525321;28;20394;-41
2023/09/10 06:28:58;;;;;;;21.77;19.52;;;20.10;54.20;;;;;;20525212;28;20409;-41
2023/09/10 06:38:58;;;;;;;21.45;19.25;;;20.30;38.60;;;;;;20530078;28;20051;-41
2023/09/10 06:48:59;;;;;;;23.02;20.63;;;20.60;16.00;;;;;;20522357;28;20051;-42
2023/09/10 06:58:59;;;;;;;20.25;18.10;;;20.80;5.00;;;;;;20521646;28;20039;-42
2023/09/10 07:09:00;;;;;;;25.42;22.58;;;21.10;1.00;;;;;;20520480;28;20050;-42
2023/09/10 07:19:01;;;;;;;23.38;20.90;;;21.40;1.00;;;;;;20520826;28;20042;-42
2023/09/10 07:29:04;;;;;;;28.90;23.20;;;21.60;1.00;;;;;;20519834;28;20071;-42
2023/09/10 07:39:05;;;;;;;30.63;27.30;;;21.90;1.00;;;;;;20519880;28;20081;-42
2023/09/10 07:49:06;;;;;;;31.83;26.70;;;22.30;1.00;;;;;;20519713;28;20558;-42
2023/09/10 07:59:09;;;;;;;23.80;19.45;;;22.50;1.00;;;;;;20516839;28;20050;-42
2023/09/10 08:09:10;;;;;;;21.23;18.05;;;22.80;1.00;;;;;;20517239;28;20050;-42
2023/09/10 08:19:10;;;;;;;24.60;20.40;;;23.10;1.00;;;;;;20516816;28;20047;-42
2023/09/10 08:29:11;;;;;;;21.25;17.27;;;23.70;1.00;;;;;;20515647;28;20043;-42
2023/09/10 08:39:12;;;;;;;25.60;18.50;;;24.20;1.00;;;;;;20516057;28;20918;-42
2023/09/10 08:49:15;;;;;;;20.57;15.33;;;24.60;1.00;;;;;;20512577;28;20115;-42
2023/09/10 08:59:16;;;;;;;18.10;14.85;;;24.90;1.00;;;;;;20513885;28;20609;-42
2023/09/10 09:09:20;;;;;;;14.98;12.95;;;25.40;1.00;;;;;;20512376;28;20133;-42
2023/09/10 09:19:22;;;;;;;13.30;11.23;;;25.70;1.00;;;;;;20512115;28;20074;-42
2023/09/10 09:29:23;;;;;;;16.58;13.15;;;26.40;1.00;;;;;;20512562;28;20066;-42
2023/09/10 09:39:24;;;;;;;14.35;12.32;;;26.50;1.00;;;;;;20510690;28;20055;-42
2023/09/10 09:49:25;;;;;;;16.57;12.00;;;26.70;1.00;;;;;;20510899;28;20623;-42
2023/09/10 09:59:26;;;;;;;12.88;9.80;;;27.10;1.00;;;;;;20508398;28;20454;-42
2023/09/10 10:09:37;;;;;;;16.20;9.82;;;27.20;1.00;;;;;;20507866;28;20046;-42
2023/09/10 10:19:38;;;;;;;12.70;11.07;;;27.40;1.00;;;;;;20508117;28;20114;-42
2023/09/10 10:29:39;;;;;;;9.60;8.60;;;27.70;1.00;;;;;;20507978;28;20058;-42
2023/09/10 10:39:56;;;;;;;12.80;10.20;;;28.00;1.00;;;;;;20508803;28;20489;-42
2023/09/10 10:49:58;;;;;;;10.07;7.90;;;28.30;1.00;;;;;;20507836;28;20050;-42
2023/09/10 11:00:01;;;;;;;11.52;6.85;;;28.80;1.00;;;;;;20521031;28;20043;-42
2023/09/10 11:10:27;;;;;;;10.65;8.05;;;29.30;1.00;;;;;;20521311;28;20070;-42
2023/09/10 11:20:50;;;;;;;11.50;8.35;;;29.80;1.00;;;;;;20521228;28;20101;-42
2023/09/10 11:30:50;;;;;;;9.82;6.68;;;30.30;1.00;;;;;;20520370;28;20052;-43
2023/09/10 11:40:51;;;;;;;10.27;7.68;;;30.70;1.00;;;;;;20519311;28;20047;-42
2023/09/10 11:50:52;;;;;;;8.80;6.20;;;31.10;1.00;;;;;;20520151;28;20066;-43
2023/09/10 12:00:52;;;;;;;7.63;6.00;;;31.20;1.00;;;;;;20516637;28;20043;-43
2023/09/10 12:10:58;;;;;;;9.65;6.80;;;31.30;1.00;;;;;;20515732;28;20051;-42
2023/09/10 12:20:59;;;;;;;8.68;6.55;;;31.50;1.00;;;;;;20517860;28;20518;-42
2023/09/10 12:31:00;;;;;;;8.93;6.50;;;31.30;1.00;;;;;;20513217;28;20503;-43
2023/09/10 12:41:01;;;;;;;7.73;6.00;;;31.50;1.00;;;;;;20514627;28;20380;-42
2023/09/10 12:51:01;;;;;;;8.82;6.25;;;31.70;1.00;;;;;;20514001;28;20046;-42
2023/09/10 13:01:02;;;;;;;9.30;6.00;;;31.90;1.00;;;;;;20512935;28;20042;-43
2023/09/10 13:11:04;;;;;;;7.20;5.45;;;32.00;1.00;;;;;;20510326;28;20054;-43
2023/09/10 13:21:04;;;;;;;8.57;6.00;;;32.30;1.00;;;;;;20524908;28;20042;-43
2023/09/10 13:31:05;;;;;;;9.63;5.72;;;32.30;1.00;;;;;;20509979;28;20061;-43
2023/09/10 13:41:05;;;;;;;6.53;5.50;;;32.40;1.00;;;;;;20508601;28;20495;-43
2023/09/10 13:51:08;;;;;;;6.07;4.87;;;32.40;1.00;;;;;;20509815;28;20454;-43
2023/09/10 14:01:09;;;;;;;8.13;5.53;;;32.50;1.00;;;;;;20508922;28;20073;-43
2023/09/10 14:11:10;;;;;;;8.43;5.68;;;32.40;1.00;;;;;;20508085;28;20391;-43
2023/09/10 14:21:10;;;;;;;7.82;5.10;;;32.20;1.00;;;;;;20509587;28;20047;-43
2023/09/10 14:31:11;;;;;;;6.03;5.07;;;32.10;1.00;;;;;;20514369;28;20106;-43
2023/09/10 14:41:11;;;;;;;7.97;5.30;;;31.80;1.00;;;;;;20523147;28;20051;-43
2023/09/10 14:51:12;;;;;;;8.18;5.40;;;31.70;1.00;;;;;;20521714;28;20047;-43
2023/09/10 15:01:13;;;;;;;7.50;5.10;;;31.50;1.00;;;;;;20522477;28;20081;-43
2023/09/10 15:11:14;;;;;;;7.55;5.45;;;31.40;1.00;;;;;;20527182;28;20503;-42
2023/09/10 15:21:14;;;;;;;6.68;5.03;;;31.40;1.00;;;;;;20520801;28;20114;-43
2023/09/10 15:31:15;;;;;;;7.32;4.68;;;31.30;1.00;;;;;;20520458;28;20043;-43
2023/09/10 15:41:15;;;;;;;10.00;6.22;;;31.20;1.00;;;;;;20517154;28;20047;-43
2023/09/10 15:51:16;;;;;;;7.63;5.55;;;31.20;1.00;;;;;;20518361;28;20480;-42
2023/09/10 16:01:17;;;;;;;10.05;5.30;;;30.90;1.00;;;;;;20517112;28;20515;-42
2023/09/10 16:11:17;;;;;;;7.35;5.50;;;30.70;1.00;;;;;;20515093;28;20051;-43
2023/09/10 16:21:18;;;;;;;6.18;4.90;;;30.40;1.00;;;;;;20516230;28;20474;-43
2023/09/10 16:31:18;;;;;;;8.98;5.25;;;30.20;1.00;;;;;;20529378;28;20047;-42
2023/09/10 16:41:19;;;;;;;8.20;5.72;;;29.90;1.00;;;;;;20516344;28;20518;-43
2023/09/10 16:51:19;;;;;;;7.35;5.25;;;29.50;1.00;;;;;;20512918;28;20079;-43
2023/09/10 17:01:20;;;;;;;7.72;5.70;;;29.20;1.00;;;;;;20512597;28;20047;-43
2023/09/10 17:11:20;;;;;;;8.63;5.68;;;29.10;1.00;;;;;;20511929;28;20065;-43
2023/09/10 17:21:24;;;;;;;9.52;6.32;;;28.80;1.00;;;;;;20511132;28;20050;-43
2023/09/10 17:31:24;;;;;;;9.23;6.10;;;28.60;1.00;;;;;;20510139;28;20619;-42
2023/09/10 17:41:26;;;;;;;9.93;5.90;;;28.40;1.00;;;;;;20510695;28;20051;-42
2023/09/10 17:51:27;;;;;;;8.20;6.80;;;28.40;1.00;;;;;;20510686;28;20602;-43
2023/09/10 18:01:31;;;;;;;10.52;9.00;;;28.20;1.00;;;;;;20508632;28;20255;-43
2023/09/10 18:11:32;;;;;;;13.18;9.77;;;27.70;1.00;;;;;;20507187;28;20122;-43
2023/09/10 18:21:33;;;;;;;9.40;8.20;;;27.30;1.00;;;;;;20508889;28;20035;-43
2023/09/10 18:31:33;;;;;;;14.75;9.95;;;26.90;1.00;;;;;;20506525;28;20035;-42
2023/09/10 18:41:34;;;;;;;11.15;8.18;;;26.60;1.00;;;;;;20507978;28;20128;-43
2023/09/10 18:52:20;;;;;;;10.15;8.45;;;26.30;1.00;;;;;;20507451;28;20047;-42
2023/09/10 19:02:21;;;;;;;12.48;8.13;;;26.00;1.00;;;;;;20504805;28;20118;-43
2023/09/10 19:12:22;;;;;;;9.82;8.35;;;25.70;1.00;;;;;;20505500;28;20213;-42
2023/09/10 19:22:22;;;;;;;10.52;8.80;;;25.50;1.00;;;;;;20526469;28;20189;-43
2023/09/10 19:32:23;;;;;;;11.43;9.18;;;25.30;1.00;;;;;;20518613;28;20046;-43
2023/09/10 19:42:23;;;;;;;12.38;9.23;;;25.20;1.00;;;;;;20518086;28;20057;-42
2023/09/10 19:52:24;;;;;;;11.65;9.10;;;25.10;1.00;;;;;;20517783;28;20065;-42
2023/09/10 20:02:24;;;;;;;12.07;9.45;;;24.90;1.00;;;;;;20517129;28;20045;-42
2023/09/10 20:12:25;;;;;;;14.27;10.13;;;24.80;1.00;;;;;;20514202;28;20054;-42
2023/09/10 20:22:26;;;;;;;12.47;10.57;;;24.70;1.00;;;;;;20517848;28;20069;-43
2023/09/10 20:32:28;;;;;;;12.50;9.93;;;24.60;1.00;;;;;;20513660;28;20130;-43
2023/09/10 20:42:28;;;;;;;11.38;9.60;;;24.70;1.00;;;;;;20513613;28;20045;-42
2023/09/10 20:52:29;;;;;;;12.45;9.38;;;24.80;1.00;;;;;;20514776;28;20054;-43
2023/09/10 21:02:30;;;;;;;11.75;9.40;;;24.80;1.00;;;;;;20512589;28;20031;-42
2023/09/10 21:12:30;;;;;;;13.52;9.60;;;24.90;1.00;;;;;;20511447;28;20043;-42
2023/09/10 21:22:31;;;;;;;11.32;9.43;;;24.90;1.00;;;;;;20513367;28;20407;-42
2023/09/10 21:32:31;;;;;;;12.55;8.82;;;25.00;1.00;;;;;;20510961;28;20102;-42
2023/09/10 21:42:32;;;;;;;9.90;8.57;;;25.10;1.00;;;;;;20509629;28;20046;-42
2023/09/10 21:52:32;;;;;;;11.30;10.10;;;25.10;1.00;;;;;;20510826;28;20054;-42
2023/09/10 22:02:33;;;;;;;17.38;10.77;;;25.00;1.00;;;;;;20510254;28;20457;-42
2023/09/10 22:12:33;;;;;;;13.50;10.55;;;25.00;1.00;;;;;;20506838;28;20402;-42
2023/09/10 22:22:34;;;;;;;10.18;8.98;;;25.10;1.00;;;;;;20514274;28;20084;-42
2023/09/10 22:32:35;;;;;;;14.63;9.05;;;25.00;1.00;;;;;;20508598;28;20502;-42
2023/09/10 22:42:36;;;;;;;13.50;9.45;;;25.00;1.00;;;;;;20506297;28;20413;-42
2023/09/10 22:52:36;;;;;;;11.45;10.00;;;25.00;1.00;;;;;;20516014;28;20097;-42
2023/09/10 23:02:37;;;;;;;14.38;10.90;;;25.10;1.00;;;;;;20521072;28;20047;-43
2023/09/10 23:12:37;;;;;;;16.02;11.32;;;25.10;1.00;;;;;;20520432;28;20053;-42
2023/09/10 23:22:40;;;;;;;15.65;11.48;;;25.10;1.00;;;;;;20520475;28;20032;-43
2023/09/10 23:32:41;;;;;;;16.67;13.90;;;25.00;1.00;;;;;;20519818;28;20126;-43
2023/09/10 23:42:41;;;;;;;13.00;11.43;;;24.90;1.00;;;;;;20519159;28;20522;-42
2023/09/10 23:52:42;;;;;;;18.23;14.23;;;24.70;1.00;;;;;;20519328;28;20130;-42
